createdAt,value
2022-08-25T00:00:23.654Z,538.00
2022-08-25T00:00:53.732Z,539.00
2022-08-25T00:01:23.776Z,539.00
2022-08-25T00:01:53.886Z,537.00
2022-08-25T00:02:23.905Z,536.00
2022-08-25T00:02:55.144Z,536.00
2022-08-25T00:03:24.009Z,536.00
2022-08-25T00:03:54.043Z,538.00
2022-08-25T00:04:24.128Z,539.00
2022-08-25T00:04:54.189Z,540.00
2022-08-25T00:05:24.300Z,540.00
2022-08-25T00:05:54.425Z,541.00
2022-08-25T00:06:24.377Z,540.00
2022-08-25T00:06:54.412Z,542.00
2022-08-25T00:07:24.451Z,544.00
2022-08-25T00:07:54.475Z,544.00
2022-08-25T00:08:24.517Z,544.00
2022-08-25T00:08:54.550Z,544.00
2022-08-25T00:09:24.578Z,545.00
2022-08-25T00:09:54.613Z,545.00
2022-08-25T00:10:24.641Z,544.00
2022-08-25T00:11:03.519Z,543.00
2022-08-25T00:11:24.731Z,544.00
2022-08-25T00:11:54.766Z,544.00
2022-08-25T00:12:24.808Z,544.00
2022-08-25T00:12:54.846Z,544.00
2022-08-25T00:13:24.877Z,544.00
2022-08-25T00:13:54.954Z,542.00
2022-08-25T00:14:24.992Z,541.00
2022-08-25T00:14:55.019Z,541.00
2022-08-25T00:15:25.139Z,542.00
2022-08-25T00:15:55.273Z,542.00
2022-08-25T00:16:25.281Z,543.00
2022-08-25T00:16:56.148Z,541.00
2022-08-25T00:17:25.533Z,538.00
2022-08-25T00:17:55.527Z,536.00
2022-08-25T00:18:25.646Z,538.00
2022-08-25T00:18:55.765Z,539.00
2022-08-25T00:19:25.760Z,539.00
2022-08-25T00:19:55.761Z,539.00
2022-08-25T00:20:25.877Z,537.00
2022-08-25T00:20:55.873Z,536.00
2022-08-25T00:21:25.865Z,535.00
2022-08-25T00:21:55.987Z,535.00
2022-08-25T00:22:26.031Z,534.00
2022-08-25T00:22:56.030Z,536.00
2022-08-25T00:23:26.019Z,537.00
2022-08-25T00:23:56.145Z,536.00
2022-08-25T00:24:26.144Z,537.00
2022-08-25T00:24:56.138Z,535.00
2022-08-25T00:25:26.173Z,536.00
2022-08-25T00:25:56.206Z,536.00
2022-08-25T00:26:26.241Z,537.00
2022-08-25T00:26:56.274Z,537.00
2022-08-25T00:27:26.325Z,538.00
2022-08-25T00:27:56.360Z,538.00
2022-08-25T00:28:26.395Z,537.00
2022-08-25T00:28:56.431Z,537.00
2022-08-25T00:29:26.490Z,537.00
2022-08-25T00:29:56.514Z,537.00
2022-08-25T00:30:26.577Z,539.00
2022-08-25T00:30:56.616Z,540.00
2022-08-25T00:31:26.638Z,540.00
2022-08-25T00:31:56.685Z,538.00
2022-08-25T00:32:26.750Z,538.00
2022-08-25T00:32:57.577Z,538.00
2022-08-25T00:33:26.775Z,538.00
2022-08-25T00:33:56.811Z,537.00
2022-08-25T00:34:26.837Z,539.00
2022-08-25T00:34:56.871Z,540.00
2022-08-25T00:35:26.908Z,540.00
2022-08-25T00:35:56.931Z,540.00
2022-08-25T00:36:26.962Z,539.00
2022-08-25T00:36:57.002Z,539.00
2022-08-25T00:37:27.046Z,539.00
2022-08-25T00:37:57.078Z,539.00
2022-08-25T00:38:27.117Z,540.00
2022-08-25T00:38:57.145Z,540.00
2022-08-25T00:39:27.171Z,539.00
2022-08-25T00:39:57.307Z,539.00
2022-08-25T00:40:27.327Z,539.00
2022-08-25T00:40:57.275Z,540.00
2022-08-25T00:41:27.306Z,541.00
2022-08-25T00:41:57.346Z,542.00
2022-08-25T00:42:27.369Z,542.00
2022-08-25T00:42:57.406Z,541.00
2022-08-25T00:43:27.435Z,539.00
2022-08-25T00:43:57.466Z,541.00
2022-08-25T00:44:27.492Z,543.00
2022-08-25T00:44:57.779Z,542.00
2022-08-25T00:45:27.523Z,541.00
2022-08-25T00:45:57.607Z,540.00
2022-08-25T00:46:27.691Z,542.00
2022-08-25T00:46:57.645Z,542.00
2022-08-25T00:47:27.673Z,541.00
2022-08-25T00:47:59.962Z,541.00
2022-08-25T00:48:27.772Z,542.00
2022-08-25T00:48:57.804Z,543.00
2022-08-25T00:49:27.831Z,541.00
2022-08-25T00:49:57.860Z,541.00
2022-08-25T00:50:27.893Z,541.00
2022-08-25T00:50:57.924Z,541.00
2022-08-25T00:51:27.952Z,541.00
2022-08-25T00:51:57.989Z,542.00
2022-08-25T00:52:28.041Z,543.00
2022-08-25T00:52:58.076Z,545.00
2022-08-25T00:53:28.106Z,544.00
2022-08-25T00:53:58.135Z,544.00
2022-08-25T00:54:28.158Z,544.00
2022-08-25T00:54:59.428Z,544.00
2022-08-25T00:55:28.309Z,542.00
2022-08-25T00:55:58.335Z,540.00
2022-08-25T00:56:28.371Z,539.00
2022-08-25T00:56:58.404Z,535.00
2022-08-25T00:57:34.574Z,534.00
2022-08-25T00:57:58.524Z,535.00
2022-08-25T00:58:28.615Z,534.00
2022-08-25T00:58:58.640Z,533.00
2022-08-25T00:59:28.681Z,532.00
2022-08-25T00:59:58.705Z,530.00
2022-08-25T01:00:28.735Z,528.00
2022-08-25T01:00:58.764Z,527.00
2022-08-25T01:01:28.858Z,529.00
2022-08-25T01:01:59.132Z,530.00
2022-08-25T01:02:29.073Z,530.00
2022-08-25T01:02:59.039Z,532.00
2022-08-25T01:03:33.129Z,531.00
2022-08-25T01:03:59.124Z,533.00
2022-08-25T01:04:29.157Z,533.00
2022-08-25T01:04:59.188Z,533.00
2022-08-25T01:05:29.212Z,533.00
2022-08-25T01:05:59.244Z,533.00
2022-08-25T01:06:29.270Z,532.00
2022-08-25T01:06:59.348Z,531.00
2022-08-25T01:07:29.382Z,531.00
2022-08-25T01:07:59.535Z,531.00
2022-08-25T01:08:29.444Z,531.00
2022-08-25T01:08:59.539Z,529.00
2022-08-25T01:09:29.568Z,529.00
2022-08-25T01:09:59.598Z,528.00
2022-08-25T01:10:29.634Z,527.00
2022-08-25T01:10:59.667Z,528.00
2022-08-25T01:11:29.709Z,529.00
2022-08-25T01:11:59.737Z,530.00
2022-08-25T01:12:29.764Z,530.00
2022-08-25T01:12:59.801Z,531.00
2022-08-25T01:13:29.826Z,534.00
2022-08-25T01:13:59.854Z,533.00
2022-08-25T01:14:29.883Z,535.00
2022-08-25T01:14:59.910Z,536.00
2022-08-25T01:15:30.072Z,534.00
2022-08-25T01:16:00.232Z,534.00
2022-08-25T01:16:30.135Z,534.00
2022-08-25T01:17:00.129Z,533.00
2022-08-25T01:17:30.252Z,534.00
2022-08-25T01:18:00.397Z,533.00
2022-08-25T01:18:30.256Z,535.00
2022-08-25T01:19:00.371Z,536.00
2022-08-25T01:19:30.492Z,535.00
2022-08-25T01:20:00.611Z,535.00
2022-08-25T01:20:30.600Z,533.00
2022-08-25T01:21:00.717Z,533.00
2022-08-25T01:21:30.712Z,531.00
2022-08-25T01:22:00.832Z,531.00
2022-08-25T01:22:30.950Z,532.00
2022-08-25T01:23:00.942Z,532.00
2022-08-25T01:23:31.059Z,534.00
2022-08-25T01:24:01.179Z,536.00
2022-08-25T01:24:31.174Z,536.00
2022-08-25T01:25:01.182Z,536.00
2022-08-25T01:25:31.204Z,536.00
2022-08-25T01:26:01.242Z,538.00
2022-08-25T01:26:31.270Z,537.00
2022-08-25T01:27:01.299Z,536.00
2022-08-25T01:27:31.334Z,535.00
2022-08-25T01:28:01.428Z,535.00
2022-08-25T01:28:31.441Z,534.00
2022-08-25T01:29:01.473Z,535.00
2022-08-25T01:29:31.506Z,534.00
2022-08-25T01:30:01.538Z,533.00
2022-08-25T01:30:31.673Z,533.00
2022-08-25T01:31:01.708Z,532.00
2022-08-25T01:31:31.783Z,530.00
2022-08-25T01:32:01.674Z,530.00
2022-08-25T01:32:31.807Z,532.00
2022-08-25T01:33:01.773Z,531.00
2022-08-25T01:33:31.804Z,530.00
2022-08-25T01:34:01.829Z,529.00
2022-08-25T01:34:31.863Z,530.00
2022-08-25T01:35:01.898Z,529.00
2022-08-25T01:35:31.925Z,529.00
2022-08-25T01:36:01.957Z,529.00
2022-08-25T01:36:31.981Z,528.00
2022-08-25T01:37:02.024Z,527.00
2022-08-25T01:37:32.051Z,525.00
2022-08-25T01:38:02.079Z,525.00
2022-08-25T01:38:32.107Z,525.00
2022-08-25T01:39:02.136Z,527.00
2022-08-25T01:39:32.158Z,525.00
2022-08-25T01:40:02.282Z,525.00
2022-08-25T01:40:32.255Z,524.00
2022-08-25T01:41:02.273Z,523.00
2022-08-25T01:41:32.303Z,523.00
2022-08-25T01:42:02.335Z,523.00
2022-08-25T01:42:32.364Z,524.00
2022-08-25T01:43:02.404Z,526.00
2022-08-25T01:43:32.444Z,527.00
2022-08-25T01:44:02.457Z,529.00
2022-08-25T01:44:32.482Z,530.00
2022-08-25T01:45:02.515Z,530.00
2022-08-25T01:45:32.545Z,530.00
2022-08-25T01:46:02.636Z,529.00
2022-08-25T01:46:32.639Z,529.00
2022-08-25T01:47:02.641Z,529.00
2022-08-25T01:47:32.677Z,528.00
2022-08-25T01:48:02.761Z,527.00
2022-08-25T01:48:32.783Z,525.00
2022-08-25T01:49:06.682Z,526.00
2022-08-25T01:49:32.867Z,528.00
2022-08-25T01:50:02.900Z,529.00
2022-08-25T01:50:32.926Z,529.00
2022-08-25T01:51:02.960Z,528.00
2022-08-25T01:51:32.989Z,529.00
2022-08-25T01:52:03.025Z,528.00
2022-08-25T01:52:33.052Z,528.00
2022-08-25T01:53:03.099Z,527.00
2022-08-25T01:53:33.602Z,530.00
2022-08-25T01:54:03.192Z,529.00
2022-08-25T01:54:33.219Z,529.00
2022-08-25T01:55:03.256Z,529.00
2022-08-25T01:55:33.280Z,530.00
2022-08-25T01:56:03.817Z,528.00
2022-08-25T01:56:33.313Z,528.00
2022-08-25T01:57:03.358Z,530.00
2022-08-25T01:57:33.380Z,530.00
2022-08-25T01:58:03.697Z,528.00
2022-08-25T01:58:33.451Z,529.00
2022-08-25T01:59:03.479Z,527.00
2022-08-25T01:59:33.511Z,531.00
2022-08-25T02:00:03.539Z,530.00
2022-08-25T02:00:33.571Z,527.00
2022-08-25T02:01:03.680Z,525.00
2022-08-25T02:01:33.761Z,527.00
2022-08-25T02:02:04.870Z,527.00
2022-08-25T02:02:33.924Z,527.00
2022-08-25T02:03:04.008Z,527.00
2022-08-25T02:03:34.043Z,529.00
2022-08-25T02:04:04.093Z,529.00
2022-08-25T02:04:34.262Z,533.00
2022-08-25T02:05:04.177Z,531.00
2022-08-25T02:05:34.274Z,532.00
2022-08-25T02:06:04.357Z,534.00
2022-08-25T02:06:34.330Z,535.00
2022-08-25T02:07:04.366Z,534.00
2022-08-25T02:07:34.395Z,534.00
2022-08-25T02:08:04.598Z,533.00
2022-08-25T02:08:34.472Z,532.00
2022-08-25T02:09:04.504Z,534.00
2022-08-25T02:09:34.532Z,534.00
2022-08-25T02:10:04.560Z,533.00
2022-08-25T02:10:34.593Z,535.00
2022-08-25T02:11:04.616Z,534.00
2022-08-25T02:11:34.649Z,534.00
2022-08-25T02:12:04.686Z,533.00
2022-08-25T02:12:34.709Z,533.00
2022-08-25T02:13:04.739Z,532.00
2022-08-25T02:13:34.769Z,534.00
2022-08-25T02:14:04.793Z,533.00
2022-08-25T02:14:34.823Z,532.00
2022-08-25T02:15:04.840Z,534.00
2022-08-25T02:15:34.950Z,532.00
2022-08-25T02:16:04.945Z,532.00
2022-08-25T02:16:35.102Z,533.00
2022-08-25T02:17:05.170Z,532.00
2022-08-25T02:17:35.150Z,533.00
2022-08-25T02:18:05.367Z,532.00
2022-08-25T02:18:35.208Z,531.00
2022-08-25T02:19:05.199Z,530.00
2022-08-25T02:19:35.319Z,530.00
2022-08-25T02:20:05.427Z,530.00
2022-08-25T02:20:35.543Z,530.00
2022-08-25T02:21:05.657Z,532.00
2022-08-25T02:21:35.771Z,534.00
2022-08-25T02:22:05.888Z,533.00
2022-08-25T02:22:36.006Z,534.00
2022-08-25T02:23:06.124Z,535.00
2022-08-25T02:23:36.246Z,535.00
2022-08-25T02:24:06.360Z,537.00
2022-08-25T02:24:36.358Z,536.00
2022-08-25T02:25:06.390Z,534.00
2022-08-25T02:25:36.402Z,534.00
2022-08-25T02:26:06.444Z,534.00
2022-08-25T02:26:36.451Z,534.00
2022-08-25T02:27:06.486Z,534.00
2022-08-25T02:27:36.517Z,531.00
2022-08-25T02:28:06.816Z,532.00
2022-08-25T02:28:36.624Z,532.00
2022-08-25T02:29:06.654Z,533.00
2022-08-25T02:29:36.686Z,533.00
2022-08-25T02:30:06.723Z,536.00
2022-08-25T02:30:36.834Z,536.00
2022-08-25T02:31:06.879Z,536.00
2022-08-25T02:31:36.884Z,536.00
2022-08-25T02:32:06.912Z,537.00
2022-08-25T02:32:36.958Z,536.00
2022-08-25T02:33:06.995Z,536.00
2022-08-25T02:33:37.038Z,536.00
2022-08-25T02:34:07.056Z,536.00
2022-08-25T02:34:37.089Z,535.00
2022-08-25T02:35:07.123Z,534.00
2022-08-25T02:35:37.140Z,537.00
2022-08-25T02:36:07.171Z,537.00
2022-08-25T02:36:37.202Z,537.00
2022-08-25T02:37:07.235Z,537.00
2022-08-25T02:37:37.274Z,536.00
2022-08-25T02:38:07.300Z,537.00
2022-08-25T02:38:37.337Z,536.00
2022-08-25T02:39:07.362Z,536.00
2022-08-25T02:39:37.395Z,537.00
2022-08-25T02:40:07.481Z,536.00
2022-08-25T02:40:37.485Z,535.00
2022-08-25T02:41:07.522Z,536.00
2022-08-25T02:41:37.562Z,537.00
2022-08-25T02:42:07.598Z,537.00
2022-08-25T02:42:37.627Z,536.00
2022-08-25T02:43:07.650Z,537.00
2022-08-25T02:43:37.681Z,536.00
2022-08-25T02:44:07.708Z,535.00
2022-08-25T02:44:37.754Z,536.00
2022-08-25T02:45:07.761Z,534.00
2022-08-25T02:45:37.840Z,534.00
2022-08-25T02:46:07.893Z,533.00
2022-08-25T02:46:37.973Z,534.00
2022-08-25T02:47:08.010Z,533.00
2022-08-25T02:47:38.042Z,532.00
2022-08-25T02:48:08.061Z,533.00
2022-08-25T02:48:38.092Z,533.00
2022-08-25T02:49:08.120Z,533.00
2022-08-25T02:49:38.155Z,534.00
2022-08-25T02:50:08.188Z,535.00
2022-08-25T02:50:38.223Z,533.00
2022-08-25T02:51:08.251Z,531.00
2022-08-25T02:51:38.295Z,533.00
2022-08-25T02:52:08.319Z,533.00
2022-08-25T02:52:38.349Z,533.00
2022-08-25T02:53:08.385Z,535.00
2022-08-25T02:53:38.423Z,532.00
2022-08-25T02:54:08.448Z,530.00
2022-08-25T02:54:38.477Z,532.00
2022-08-25T02:55:08.508Z,529.00
2022-08-25T02:55:38.533Z,529.00
2022-08-25T02:56:08.566Z,529.00
2022-08-25T02:56:38.603Z,529.00
2022-08-25T02:57:08.631Z,528.00
2022-08-25T02:57:38.665Z,530.00
2022-08-25T02:58:08.689Z,530.00
2022-08-25T02:58:38.716Z,532.00
2022-08-25T02:59:08.744Z,532.00
2022-08-25T02:59:38.778Z,532.00
2022-08-25T03:00:08.807Z,533.00
2022-08-25T03:00:38.870Z,532.00
2022-08-25T03:01:08.947Z,531.00
2022-08-25T03:01:39.032Z,531.00
2022-08-25T03:02:09.056Z,532.00
2022-08-25T03:02:39.093Z,533.00
2022-08-25T03:03:09.128Z,534.00
2022-08-25T03:03:39.576Z,533.00
2022-08-25T03:04:09.206Z,533.00
2022-08-25T03:04:39.329Z,534.00
2022-08-25T03:05:09.472Z,533.00
2022-08-25T03:05:39.394Z,533.00
2022-08-25T03:06:09.426Z,535.00
2022-08-25T03:06:39.466Z,535.00
2022-08-25T03:07:09.497Z,536.00
2022-08-25T03:07:39.883Z,536.00
2022-08-25T03:08:09.675Z,536.00
2022-08-25T03:08:39.709Z,536.00
2022-08-25T03:09:09.735Z,536.00
2022-08-25T03:09:39.779Z,537.00
2022-08-25T03:10:09.795Z,538.00
2022-08-25T03:10:39.831Z,538.00
2022-08-25T03:11:09.863Z,536.00
2022-08-25T03:11:39.892Z,534.00
2022-08-25T03:12:09.926Z,535.00
2022-08-25T03:12:39.957Z,534.00
2022-08-25T03:13:09.988Z,534.00
2022-08-25T03:13:40.036Z,533.00
2022-08-25T03:14:10.052Z,530.00
2022-08-25T03:14:40.082Z,529.00
2022-08-25T03:15:12.798Z,530.00
2022-08-25T03:15:40.172Z,532.00
2022-08-25T03:16:11.152Z,531.00
2022-08-25T03:16:40.379Z,532.00
2022-08-25T03:17:10.343Z,534.00
2022-08-25T03:17:40.297Z,534.00
2022-08-25T03:18:10.304Z,531.00
2022-08-25T03:18:40.429Z,530.00
2022-08-25T03:19:10.545Z,530.00
2022-08-25T03:19:40.536Z,532.00
2022-08-25T03:20:10.529Z,530.00
2022-08-25T03:20:40.643Z,529.00
2022-08-25T03:21:10.807Z,529.00
2022-08-25T03:21:40.797Z,530.00
2022-08-25T03:22:11.239Z,531.00
2022-08-25T03:22:40.977Z,532.00
2022-08-25T03:23:10.975Z,531.00
2022-08-25T03:23:41.096Z,530.00
2022-08-25T03:24:11.207Z,531.00
2022-08-25T03:24:41.205Z,531.00
2022-08-25T03:25:11.226Z,532.00
2022-08-25T03:25:41.253Z,531.00
2022-08-25T03:26:11.288Z,530.00
2022-08-25T03:26:41.325Z,532.00
2022-08-25T03:27:11.351Z,533.00
2022-08-25T03:27:41.457Z,534.00
2022-08-25T03:28:11.494Z,534.00
2022-08-25T03:28:41.515Z,534.00
2022-08-25T03:29:11.541Z,532.00
2022-08-25T03:29:41.578Z,532.00
2022-08-25T03:30:11.612Z,532.00
2022-08-25T03:30:41.643Z,531.00
2022-08-25T03:31:11.751Z,531.00
2022-08-25T03:31:41.848Z,531.00
2022-08-25T03:32:11.974Z,531.00
2022-08-25T03:32:41.999Z,532.00
2022-08-25T03:33:12.030Z,531.00
2022-08-25T03:33:42.099Z,532.00
2022-08-25T03:34:12.129Z,531.00
2022-08-25T03:34:42.159Z,531.00
2022-08-25T03:35:12.192Z,529.00
2022-08-25T03:35:42.215Z,529.00
2022-08-25T03:36:12.253Z,529.00
2022-08-25T03:36:42.284Z,528.00
2022-08-25T03:37:12.309Z,528.00
2022-08-25T03:37:42.346Z,527.00
2022-08-25T03:38:12.378Z,527.00
2022-08-25T03:38:42.401Z,527.00
2022-08-25T03:39:12.435Z,527.00
2022-08-25T03:39:42.473Z,529.00
2022-08-25T03:40:15.280Z,530.00
2022-08-25T03:40:42.527Z,530.00
2022-08-25T03:41:12.575Z,531.00
2022-08-25T03:41:42.608Z,532.00
2022-08-25T03:42:12.637Z,534.00
2022-08-25T03:42:45.024Z,534.00
2022-08-25T03:43:12.725Z,545.00
2022-08-25T03:43:42.764Z,540.00
2022-08-25T03:44:12.787Z,534.00
2022-08-25T03:44:42.815Z,531.00
2022-08-25T03:45:12.843Z,531.00
2022-08-25T03:45:42.934Z,535.00
2022-08-25T03:46:13.018Z,520.00
2022-08-25T03:46:43.029Z,518.00
2022-08-25T03:47:13.061Z,517.00
2022-08-25T03:47:43.110Z,519.00
2022-08-25T03:48:13.140Z,520.00
2022-08-25T03:48:43.178Z,522.00
2022-08-25T03:49:13.208Z,528.00
2022-08-25T03:49:43.237Z,528.00
2022-08-25T03:50:13.282Z,523.00
2022-08-25T03:50:43.337Z,518.00
2022-08-25T03:51:13.390Z,518.00
2022-08-25T03:51:43.432Z,518.00
2022-08-25T03:52:13.452Z,519.00
2022-08-25T03:52:43.489Z,523.00
2022-08-25T03:53:13.521Z,525.00
2022-08-25T03:53:43.613Z,522.00
2022-08-25T03:54:13.655Z,519.00
2022-08-25T03:54:43.689Z,520.00
2022-08-25T03:55:13.735Z,521.00
2022-08-25T03:55:43.750Z,519.00
2022-08-25T03:56:13.774Z,512.00
2022-08-25T03:56:43.814Z,504.00
2022-08-25T03:57:13.844Z,505.00
2022-08-25T03:57:43.876Z,502.00
2022-08-25T03:58:13.908Z,504.00
2022-08-25T03:58:43.944Z,497.00
2022-08-25T03:59:13.975Z,494.00
2022-08-25T03:59:44.016Z,493.00
2022-08-25T04:00:14.052Z,493.00
2022-08-25T04:00:44.168Z,498.00
2022-08-25T04:01:14.224Z,565.00
2022-08-25T04:01:44.298Z,501.00
2022-08-25T04:02:14.404Z,494.00
2022-08-25T04:02:44.496Z,501.00
2022-08-25T04:03:14.490Z,498.00
2022-08-25T04:03:44.524Z,498.00
2022-08-25T04:04:14.556Z,500.00
2022-08-25T04:04:44.588Z,500.00
2022-08-25T04:05:15.828Z,499.00
2022-08-25T04:05:44.647Z,499.00
2022-08-25T04:06:14.699Z,498.00
2022-08-25T04:06:44.728Z,500.00
2022-08-25T04:07:14.759Z,503.00
2022-08-25T04:07:44.800Z,503.00
2022-08-25T04:08:14.833Z,502.00
2022-08-25T04:08:44.869Z,511.00
2022-08-25T04:09:14.908Z,488.00
2022-08-25T04:09:44.948Z,488.00
2022-08-25T04:10:14.969Z,491.00
2022-08-25T04:10:45.006Z,499.00
2022-08-25T04:11:15.039Z,498.00
2022-08-25T04:11:45.072Z,502.00
2022-08-25T04:12:15.104Z,512.00
2022-08-25T04:12:45.144Z,500.00
2022-08-25T04:13:15.175Z,500.00
2022-08-25T04:13:45.199Z,506.00
2022-08-25T04:14:16.563Z,502.00
2022-08-25T04:14:45.243Z,498.00
2022-08-25T04:15:15.241Z,501.00
2022-08-25T04:15:45.238Z,501.00
2022-08-25T04:16:15.415Z,499.00
2022-08-25T04:16:45.542Z,498.00
2022-08-25T04:17:15.446Z,503.00
2022-08-25T04:17:45.566Z,500.00
2022-08-25T04:18:15.626Z,499.00
2022-08-25T04:18:45.620Z,497.00
2022-08-25T04:19:15.610Z,496.00
2022-08-25T04:19:45.725Z,496.00
2022-08-25T04:20:15.840Z,494.00
2022-08-25T04:20:46.848Z,493.00
2022-08-25T04:21:15.842Z,495.00
2022-08-25T04:21:45.971Z,500.00
2022-08-25T04:22:15.839Z,502.00
2022-08-25T04:22:45.956Z,501.00
2022-08-25T04:23:16.077Z,492.00
2022-08-25T04:23:46.073Z,502.00
2022-08-25T04:24:16.192Z,493.00
2022-08-25T04:24:46.187Z,476.00
2022-08-25T04:25:16.217Z,484.00
2022-08-25T04:25:46.357Z,464.00
2022-08-25T04:26:16.248Z,482.00
2022-08-25T04:26:46.620Z,408.00
2022-08-25T04:27:16.405Z,478.00
2022-08-25T04:27:46.435Z,497.00
2022-08-25T04:28:16.465Z,444.00
2022-08-25T04:28:46.500Z,485.00
2022-08-25T04:29:16.526Z,496.00
2022-08-25T04:29:46.558Z,499.00
2022-08-25T04:30:16.623Z,495.00
2022-08-25T04:30:51.466Z,493.00
2022-08-25T04:31:16.831Z,495.00
2022-08-25T04:31:47.035Z,499.00
2022-08-25T04:32:16.969Z,497.00
2022-08-25T04:32:47.002Z,500.00
2022-08-25T04:33:17.038Z,477.00
2022-08-25T04:33:47.069Z,488.00
2022-08-25T04:34:30.689Z,489.00
2022-08-25T04:34:47.145Z,498.00
2022-08-25T04:35:17.178Z,458.00
2022-08-25T04:35:47.208Z,484.00
2022-08-25T04:36:17.245Z,492.00
2022-08-25T04:36:47.275Z,491.00
2022-08-25T04:37:17.321Z,472.00
2022-08-25T04:37:47.354Z,484.00
2022-08-25T04:38:17.397Z,479.00
2022-08-25T04:38:47.422Z,471.00
2022-08-25T04:39:17.455Z,484.00
2022-08-25T04:39:47.543Z,485.00
2022-08-25T04:40:17.543Z,468.00
2022-08-25T04:40:47.524Z,474.00
2022-08-25T04:41:17.566Z,475.00
2022-08-25T04:41:47.594Z,475.00
2022-08-25T04:42:17.637Z,479.00
2022-08-25T04:42:48.295Z,491.00
2022-08-25T04:43:17.728Z,467.00
2022-08-25T04:43:47.759Z,466.00
2022-08-25T04:44:17.791Z,472.00
2022-08-25T04:44:47.824Z,482.00
2022-08-25T04:45:17.858Z,461.00
2022-08-25T04:45:47.947Z,478.00
2022-08-25T04:46:20.346Z,487.00
2022-08-25T04:46:47.948Z,465.00
2022-08-25T04:47:17.987Z,461.00
2022-08-25T04:47:50.676Z,488.00
2022-08-25T04:48:18.062Z,483.00
2022-08-25T04:48:48.094Z,491.00
2022-08-25T04:49:18.128Z,491.00
2022-08-25T04:49:48.157Z,482.00
2022-08-25T04:50:18.197Z,486.00
2022-08-25T04:50:48.224Z,487.00
2022-08-25T04:51:18.259Z,489.00
2022-08-25T04:51:48.289Z,434.00
2022-08-25T04:52:18.320Z,484.00
2022-08-25T04:52:48.346Z,481.00
2022-08-25T04:53:18.378Z,476.00
2022-08-25T04:53:48.378Z,487.00
2022-08-25T04:54:18.407Z,472.00
2022-08-25T04:54:48.440Z,480.00
2022-08-25T04:55:18.469Z,481.00
2022-08-25T04:55:48.497Z,481.00
2022-08-25T04:56:18.532Z,474.00
2022-08-25T04:56:48.564Z,487.00
2022-08-25T04:57:18.598Z,487.00
2022-08-25T04:57:48.630Z,489.00
2022-08-25T04:58:18.666Z,487.00
2022-08-25T04:58:48.700Z,478.00
2022-08-25T04:59:18.727Z,472.00
2022-08-25T04:59:48.760Z,451.00
2022-08-25T05:00:18.836Z,437.00
2022-08-25T05:00:48.913Z,509.00
2022-08-25T05:01:19.002Z,464.00
2022-08-25T05:01:49.683Z,494.00
2022-08-25T05:02:18.963Z,487.00
2022-08-25T05:02:49.000Z,495.00
2022-08-25T05:03:19.027Z,499.00
2022-08-25T05:03:49.087Z,487.00
2022-08-25T05:04:28.534Z,478.00
2022-08-25T05:04:49.197Z,475.00
2022-08-25T05:05:19.203Z,467.00
2022-08-25T05:05:49.242Z,466.00
2022-08-25T05:06:19.274Z,493.00
2022-08-25T05:06:49.300Z,486.00
2022-08-25T05:07:19.342Z,484.00
2022-08-25T05:07:49.370Z,412.00
2022-08-25T05:08:19.401Z,468.00
2022-08-25T05:08:49.435Z,479.00
2022-08-25T05:09:19.814Z,484.00
2022-08-25T05:09:49.647Z,483.00
2022-08-25T05:10:19.678Z,471.00
2022-08-25T05:10:49.710Z,485.00
2022-08-25T05:11:19.744Z,479.00
2022-08-25T05:11:49.786Z,484.00
2022-08-25T05:12:19.815Z,488.00
2022-08-25T05:12:49.842Z,490.00
2022-08-25T05:13:19.873Z,495.00
2022-08-25T05:13:51.251Z,493.00
2022-08-25T05:14:20.056Z,496.00
2022-08-25T05:14:50.084Z,487.00
2022-08-25T05:15:20.205Z,481.00
2022-08-25T05:15:50.975Z,481.00
2022-08-25T05:16:20.450Z,487.00
2022-08-25T05:16:50.447Z,489.00
2022-08-25T05:17:20.413Z,486.00
2022-08-25T05:17:55.232Z,441.00
2022-08-25T05:18:20.458Z,470.00
2022-08-25T05:18:50.455Z,492.00
2022-08-25T05:19:20.580Z,519.00
2022-08-25T05:19:50.575Z,500.00
2022-08-25T05:20:20.691Z,462.00
2022-08-25T05:20:50.809Z,392.00
2022-08-25T05:21:20.814Z,486.00
2022-08-25T05:21:50.929Z,504.00
2022-08-25T05:22:21.045Z,508.00
2022-08-25T05:22:51.157Z,502.00
2022-08-25T05:23:21.277Z,499.00
2022-08-25T05:23:51.396Z,490.00
2022-08-25T05:24:21.531Z,492.00
2022-08-25T05:24:51.517Z,487.00
2022-08-25T05:25:21.547Z,492.00
2022-08-25T05:25:51.580Z,485.00
2022-08-25T05:26:21.625Z,484.00
2022-08-25T05:26:51.751Z,503.00
2022-08-25T05:27:21.782Z,453.00
2022-08-25T05:27:51.816Z,478.00
2022-08-25T05:28:21.849Z,476.00
2022-08-25T05:28:51.883Z,481.00
2022-08-25T05:29:21.909Z,482.00
2022-08-25T05:29:51.940Z,483.00
2022-08-25T05:30:21.974Z,493.00
2022-08-25T05:30:52.012Z,491.00
2022-08-25T05:31:22.150Z,469.00
2022-08-25T05:31:52.113Z,503.00
2022-08-25T05:32:22.134Z,437.00
2022-08-25T05:32:52.176Z,484.00
2022-08-25T05:33:22.205Z,490.00
2022-08-25T05:33:52.238Z,425.00
2022-08-25T05:34:22.277Z,462.00
2022-08-25T05:34:52.304Z,478.00
2022-08-25T05:35:22.341Z,471.00
2022-08-25T05:35:52.371Z,474.00
2022-08-25T05:36:22.398Z,472.00
2022-08-25T05:36:52.439Z,474.00
2022-08-25T05:37:22.468Z,474.00
2022-08-25T05:37:52.498Z,480.00
2022-08-25T05:38:22.534Z,473.00
2022-08-25T05:38:52.552Z,479.00
2022-08-25T05:39:22.580Z,479.00
2022-08-25T05:39:52.674Z,489.00
2022-08-25T05:40:22.758Z,488.00
2022-08-25T05:40:52.780Z,494.00
2022-08-25T05:41:22.815Z,463.00
2022-08-25T05:41:52.861Z,500.00
2022-08-25T05:42:22.891Z,482.00
2022-08-25T05:42:52.923Z,484.00
2022-08-25T05:43:22.953Z,481.00
2022-08-25T05:43:52.978Z,468.00
2022-08-25T05:44:23.013Z,454.00
2022-08-25T05:44:53.043Z,472.00
2022-08-25T05:45:23.212Z,496.00
2022-08-25T05:45:53.280Z,494.00
2022-08-25T05:46:23.286Z,496.00
2022-08-25T05:46:53.319Z,486.00
2022-08-25T05:47:23.349Z,491.00
2022-08-25T05:47:53.382Z,504.00
2022-08-25T05:48:23.412Z,469.00
2022-08-25T05:48:53.447Z,483.00
2022-08-25T05:49:23.479Z,481.00
2022-08-25T05:49:53.508Z,475.00
2022-08-25T05:50:23.541Z,476.00
2022-08-25T05:50:53.577Z,483.00
2022-08-25T05:51:23.603Z,482.00
2022-08-25T05:51:53.636Z,487.00
2022-08-25T05:52:23.670Z,342.00
2022-08-25T05:52:53.703Z,477.00
2022-08-25T05:53:23.744Z,519.00
2022-08-25T05:53:53.786Z,445.00
2022-08-25T05:54:23.850Z,464.00
2022-08-25T05:54:53.884Z,474.00
2022-08-25T05:55:23.917Z,493.00
2022-08-25T05:55:53.950Z,472.00
2022-08-25T05:56:23.983Z,481.00
2022-08-25T05:56:54.021Z,483.00
2022-08-25T05:57:24.056Z,489.00
2022-08-25T05:57:54.087Z,486.00
2022-08-25T05:58:24.116Z,485.00
2022-08-25T05:58:54.148Z,486.00
2022-08-25T05:59:24.182Z,488.00
2022-08-25T05:59:54.268Z,487.00
2022-08-25T06:00:24.292Z,486.00
2022-08-25T06:00:54.412Z,483.00
2022-08-25T06:01:24.500Z,483.00
2022-08-25T06:01:54.527Z,490.00
2022-08-25T06:02:24.570Z,495.00
2022-08-25T06:02:54.605Z,462.00
2022-08-25T06:03:24.697Z,464.00
2022-08-25T06:03:54.918Z,457.00
2022-08-25T06:04:24.743Z,464.00
2022-08-25T06:04:54.766Z,492.00
2022-08-25T06:05:24.820Z,481.00
2022-08-25T06:05:54.858Z,491.00
2022-08-25T06:06:24.913Z,485.00
2022-08-25T06:06:55.062Z,484.00
2022-08-25T06:07:24.981Z,484.00
2022-08-25T06:07:55.033Z,486.00
2022-08-25T06:08:25.066Z,476.00
2022-08-25T06:08:55.092Z,470.00
2022-08-25T06:09:25.126Z,336.00
2022-08-25T06:09:55.154Z,454.00
2022-08-25T06:10:25.190Z,459.00
2022-08-25T06:10:55.228Z,464.00
2022-08-25T06:11:25.246Z,487.00
2022-08-25T06:11:55.567Z,490.00
2022-08-25T06:12:25.398Z,400.00
2022-08-25T06:12:56.216Z,462.00
2022-08-25T06:13:26.995Z,471.00
2022-08-25T06:13:55.513Z,475.00
2022-08-25T06:14:25.543Z,478.00
2022-08-25T06:14:55.565Z,484.00